Time;durP1;ratioP1;P1;durP2;ratioP2;P2;SDS_P1;SDS_P2;PMS_P1;PMS_P2;Temp;Humidity;BMP_temperature;BMP_pressure;BME280_temperature;BME280_humidity;BME280_pressure;Samples;Min_cycle;Max_cycle;Signal;HPM_P1;HPM_P2
2021/09/26 00:00:38;;;;;;;15.68;7.45;;;11.80;99.90;;;;;;5021196;28;20021;-78
2021/09/26 00:03:03;;;;;;;22.77;7.88;;;11.70;99.90;;;;;;5051345;28;20041;-78
2021/09/26 00:05:29;;;;;;;17.55;8.25;;;11.70;99.90;;;;;;5033227;28;20032;-78
2021/09/26 00:07:55;;;;;;;14.38;7.35;;;11.60;99.90;;;;;;5033185;28;20401;-79
2021/09/26 00:10:20;;;;;;;17.48;6.60;;;11.50;99.90;;;;;;5051129;28;20037;-78
2021/09/26 00:12:46;;;;;;;11.77;6.05;;;11.40;99.90;;;;;;5051204;28;20029;-78
2021/09/26 00:15:16;;;;;;;9.55;5.60;;;11.30;99.90;;;;;;5033053;28;20032;-79
2021/09/26 00:17:42;;;;;;;14.57;7.10;;;11.30;99.90;;;;;;5033237;28;20021;-78
2021/09/26 00:20:08;;;;;;;11.00;5.85;;;11.20;99.90;;;;;;5051048;28;20032;-78
2021/09/26 00:22:34;;;;;;;8.82;6.40;;;11.10;99.90;;;;;;5033053;28;20381;-78
2021/09/26 00:25:00;;;;;;;7.57;5.35;;;11.00;99.90;;;;;;5033078;28;20047;-78
2021/09/26 00:27:25;;;;;;;16.27;6.25;;;11.00;99.90;;;;;;5033177;28;20493;-79
2021/09/26 00:29:51;;;;;;;9.18;5.88;;;10.90;99.90;;;;;;5053851;28;20108;-78
2021/09/26 00:32:16;;;;;;;14.40;5.40;;;10.90;99.90;;;;;;5054482;28;20509;-78
2021/09/26 00:34:42;;;;;;;11.23;6.65;;;11.00;99.90;;;;;;5036452;28;20370;-78
2021/09/26 00:37:07;;;;;;;12.52;5.70;;;11.10;99.90;;;;;;5036523;28;20122;-79
2021/09/26 00:39:33;;;;;;;7.90;5.50;;;11.20;99.90;;;;;;5036686;28;20017;-78
2021/09/26 00:41:59;;;;;;;8.02;5.60;;;11.30;99.90;;;;;;5054301;28;20531;-78
2021/09/26 00:44:25;;;;;;;9.52;6.00;;;11.40;99.90;;;;;;5054242;28;20029;-78
2021/09/26 00:46:51;;;;;;;16.35;8.27;;;11.50;99.90;;;;;;5036469;28;20032;-79
2021/09/26 00:49:17;;;;;;;15.20;8.95;;;11.60;99.90;;;;;;5036381;28;20120;-78
2021/09/26 00:51:44;;;;;;;15.93;7.43;;;11.70;99.90;;;;;;5054055;28;20101;-78
2021/09/26 00:54:11;;;;;;;8.63;6.78;;;11.70;99.90;;;;;;5036114;28;20108;-79
2021/09/26 00:56:36;;;;;;;12.50;6.68;;;11.70;99.90;;;;;;5054193;28;20031;-78
2021/09/26 00:59:02;;;;;;;10.40;7.00;;;11.60;99.90;;;;;;5046895;28;20025;-78
2021/09/26 01:01:28;;;;;;;11.90;7.13;;;11.60;99.90;;;;;;5033992;28;20026;-78
2021/09/26 01:03:55;;;;;;;13.20;7.43;;;11.50;99.90;;;;;;5016027;28;20025;-78
2021/09/26 01:06:29;;;;;;;13.65;7.47;;;11.50;99.90;;;;;;5034017;28;20029;-78
2021/09/26 01:09:02;;;;;;;8.48;6.57;;;11.40;99.90;;;;;;5016265;28;20041;-78
2021/09/26 01:11:50;;;;;;;9.95;6.88;;;11.30;99.90;;;;;;5033889;28;20025;-78
2021/09/26 01:14:34;;;;;;;11.60;6.90;;;11.30;99.90;;;;;;5015464;28;20057;-78
2021/09/26 01:17:25;;;;;;;11.80;7.28;;;11.20;99.90;;;;;;5033797;28;20083;-78
2021/09/26 01:20:11;;;;;;;12.73;7.10;;;11.10;99.90;;;;;;5025481;28;20030;-79
2021/09/26 01:23:05;;;;;;;14.68;7.95;;;11.10;99.90;;;;;;5015931;28;20547;-78
2021/09/26 01:25:49;;;;;;;14.07;8.27;;;11.00;99.90;;;;;;5033732;28;20055;-78
2021/09/26 01:28:27;;;;;;;;;;;11.00;99.90;;;;;;5016317;28;20044;-78
2021/09/26 01:31:00;;;;;;;15.60;7.40;;;11.00;99.90;;;;;;5033467;28;19916;-78
2021/09/26 01:33:33;;;;;;;9.00;7.22;;;11.00;99.90;;;;;;5033501;28;20084;-78
2021/09/26 01:36:11;;;;;;;11.30;7.38;;;11.00;99.90;;;;;;5033324;28;20026;-78
2021/09/26 01:39:07;;;;;;;10.90;8.32;;;11.00;99.90;;;;;;5033343;28;20081;-78
2021/09/26 01:41:59;;;;;;;16.73;8.90;;;11.10;99.90;;;;;;5032314;28;20025;-79
2021/09/26 01:44:34;;;;;;;18.65;8.18;;;11.10;99.90;;;;;;5033359;28;20093;-79
2021/09/26 01:47:01;;;;;;;11.40;7.40;;;11.10;99.90;;;;;;5015589;28;20037;-78
2021/09/26 01:49:34;;;;;;;11.20;7.38;;;11.20;99.90;;;;;;5033267;28;20052;-78
2021/09/26 01:52:01;;;;;;;11.75;6.50;;;11.20;99.90;;;;;;5015346;28;20032;-78
2021/09/26 01:54:27;;;;;;;11.05;8.13;;;11.30;99.90;;;;;;5015036;28;20021;-79
2021/09/26 01:56:55;;;;;;;11.05;6.32;;;11.30;99.90;;;;;;5015433;28;20022;-78
2021/09/26 01:59:22;;;;;;;11.63;8.13;;;11.30;99.90;;;;;;5005787;28;20077;-79
2021/09/26 02:01:48;;;;;;;10.23;6.93;;;11.30;99.90;;;;;;4995458;28;20552;-78
2021/09/26 02:04:17;;;;;;;9.80;6.53;;;11.30;99.90;;;;;;4995507;28;20029;-78
2021/09/26 02:06:44;;;;;;;11.15;6.78;;;11.40;99.90;;;;;;5013030;28;20045;-78
2021/09/26 02:09:11;;;;;;;10.48;6.57;;;11.40;99.90;;;;;;5013056;28;20029;-78
2021/09/26 02:11:39;;;;;;;11.65;7.20;;;11.40;99.90;;;;;;5012938;28;20398;-78
2021/09/26 02:14:06;;;;;;;13.40;7.35;;;11.40;99.90;;;;;;5012787;28;20041;-78
2021/09/26 02:16:34;;;;;;;10.80;7.03;;;11.40;99.90;;;;;;5013023;28;20054;-79
2021/09/26 02:19:01;;;;;;;13.50;7.68;;;11.40;99.90;;;;;;4995331;28;20028;-78
2021/09/26 02:21:28;;;;;;;15.95;7.15;;;11.50;99.90;;;;;;4994969;28;20030;-78
2021/09/26 02:23:54;;;;;;;16.55;7.68;;;11.50;99.90;;;;;;4995090;28;20037;-78
2021/09/26 02:26:21;;;;;;;19.50;8.50;;;11.60;99.90;;;;;;5018412;28;20033;-78
2021/09/26 02:28:46;;;;;;;18.67;8.20;;;11.60;99.90;;;;;;5043531;28;20029;-78
2021/09/26 02:31:13;;;;;;;14.05;7.38;;;11.60;99.90;;;;;;5032273;28;20078;-77
2021/09/26 02:33:40;;;;;;;10.48;7.30;;;11.60;99.90;;;;;;5014607;28;20022;-78
2021/09/26 02:36:07;;;;;;;13.15;6.97;;;11.50;99.90;;;;;;5017965;28;20018;-78
2021/09/26 02:38:35;;;;;;;18.73;8.20;;;11.60;99.90;;;;;;5015200;28;20060;-78
2021/09/26 02:41:27;;;;;;;14.95;8.75;;;11.60;99.90;;;;;;5014557;28;20478;-78
2021/09/26 02:44:23;;;;;;;15.48;7.85;;;11.70;99.90;;;;;;5031714;28;20433;-77
2021/09/26 02:46:57;;;;;;;18.85;9.65;;;11.70;99.90;;;;;;5032202;28;20055;-78
2021/09/26 02:49:23;;;;;;;14.18;8.05;;;11.80;99.90;;;;;;5014464;28;20374;-78
2021/09/26 02:51:51;;;;;;;11.55;7.63;;;11.80;99.90;;;;;;5031694;28;20040;-78
2021/09/26 02:54:18;;;;;;;15.35;7.75;;;11.90;99.90;;;;;;5031921;28;20021;-78
2021/09/26 02:56:45;;;;;;;11.05;7.00;;;11.90;99.90;;;;;;5014247;28;20030;-78
2021/09/26 02:59:11;;;;;;;9.93;7.10;;;12.00;99.90;;;;;;5014161;28;20063;-78
2021/09/26 03:01:51;;;;;;;12.02;7.43;;;12.00;99.90;;;;;;5021809;28;20037;-78
2021/09/26 03:04:16;;;;;;;17.48;7.70;;;12.00;99.90;;;;;;5016386;28;20065;-78
2021/09/26 03:06:42;;;;;;;11.38;6.57;;;12.00;99.90;;;;;;5014162;28;20084;-78
2021/09/26 03:09:08;;;;;;;18.35;7.32;;;12.10;99.90;;;;;;5014208;28;20037;-78
2021/09/26 03:11:33;;;;;;;13.65;6.93;;;12.10;99.90;;;;;;5031564;28;20190;-78
2021/09/26 03:13:59;;;;;;;20.25;7.35;;;12.10;99.90;;;;;;5013929;28;20025;-78
2021/09/26 03:16:25;;;;;;;9.23;5.80;;;12.10;99.90;;;;;;5031763;28;20034;-78
2021/09/26 03:18:50;;;;;;;11.93;6.93;;;12.10;99.90;;;;;;5031766;28;20025;-79
2021/09/26 03:21:16;;;;;;;13.27;6.88;;;12.10;99.90;;;;;;5013882;28;20109;-78
2021/09/26 03:23:42;;;;;;;11.25;6.07;;;12.10;99.90;;;;;;5031577;28;20032;-78
2021/09/26 03:26:08;;;;;;;9.82;6.32;;;12.10;99.90;;;;;;5031771;28;20109;-78
2021/09/26 03:28:34;;;;;;;15.95;6.57;;;12.20;99.90;;;;;;5031724;28;20470;-78
2021/09/26 03:31:00;;;;;;;11.80;6.55;;;12.10;99.90;;;;;;5014143;28;20029;-78
2021/09/26 03:33:25;;;;;;;9.68;6.88;;;12.20;99.90;;;;;;5013873;28;20032;-78
2021/09/26 03:35:51;;;;;;;21.65;7.40;;;12.20;99.90;;;;;;5013593;28;20044;-78
2021/09/26 03:38:17;;;;;;;11.55;7.03;;;12.20;99.90;;;;;;5031539;28;20029;-79
2021/09/26 03:40:42;;;;;;;14.02;7.53;;;12.30;99.90;;;;;;5031543;28;20022;-78
2021/09/26 03:43:08;;;;;;;12.60;6.40;;;12.30;99.90;;;;;;5013907;28;20025;-78
2021/09/26 03:45:34;;;;;;;11.55;6.63;;;12.40;99.90;;;;;;5013770;28;20511;-78
2021/09/26 03:47:59;;;;;;;13.70;7.43;;;12.50;99.90;;;;;;5031498;28;20029;-78
2021/09/26 03:50:25;;;;;;;11.32;6.55;;;12.40;99.90;;;;;;5013519;28;20030;-78
2021/09/26 03:52:52;;;;;;;19.95;8.38;;;12.50;99.90;;;;;;5013764;28;20478;-78
2021/09/26 03:55:17;;;;;;;15.10;7.38;;;12.60;99.90;;;;;;5013555;28;20028;-78
2021/09/26 03:57:44;;;;;;;12.07;7.28;;;12.60;99.90;;;;;;5031433;28;20026;-78
2021/09/26 04:00:14;;;;;;;12.57;7.30;;;12.60;99.90;;;;;;5013697;28;20050;-78
2021/09/26 04:02:40;;;;;;;13.05;7.53;;;12.60;99.90;;;;;;5013448;28;20516;-78
2021/09/26 04:05:06;;;;;;;10.25;7.70;;;12.70;99.90;;;;;;5016652;28;20379;-78
2021/09/26 04:07:31;;;;;;;13.18;6.78;;;12.70;99.90;;;;;;5035198;28;20433;-79
2021/09/26 04:09:57;;;;;;;13.10;8.25;;;12.70;99.90;;;;;;5017454;28;20021;-78
2021/09/26 04:12:22;;;;;;;10.82;7.63;;;12.80;99.90;;;;;;5034954;28;20533;-78
2021/09/26 04:14:48;;;;;;;14.40;7.60;;;12.80;99.90;;;;;;5034822;28;20501;-78
2021/09/26 04:17:14;;;;;;;13.80;7.93;;;12.80;99.90;;;;;;5017304;28;20116;-78
2021/09/26 04:19:39;;;;;;;16.15;8.60;;;12.90;99.90;;;;;;5017080;28;20500;-78
2021/09/26 04:22:05;;;;;;;14.73;7.80;;;12.80;99.90;;;;;;5034826;28;20029;-78
2021/09/26 04:24:31;;;;;;;15.80;8.18;;;12.90;99.90;;;;;;5034660;28;20498;-78
2021/09/26 04:26:56;;;;;;;11.52;8.02;;;12.90;99.90;;;;;;5017084;28;20029;-78
2021/09/26 04:29:23;;;;;;;11.82;8.88;;;12.90;99.90;;;;;;5034755;28;20160;-78
2021/09/26 04:31:49;;;;;;;13.52;8.32;;;12.90;99.90;;;;;;5016780;28;20036;-78
2021/09/26 04:34:14;;;;;;;18.83;9.00;;;13.00;99.90;;;;;;5034351;28;20029;-78
2021/09/26 04:36:40;;;;;;;15.85;8.95;;;13.00;99.90;;;;;;5016873;28;20025;-77
2021/09/26 04:39:05;;;;;;;16.08;9.07;;;13.00;99.90;;;;;;5034642;28;20029;-78
2021/09/26 04:41:32;;;;;;;13.63;8.18;;;13.00;99.90;;;;;;5034497;28;20037;-78
2021/09/26 04:43:58;;;;;;;18.02;9.25;;;13.10;99.90;;;;;;5034224;28;20037;-78
2021/09/26 04:46:23;;;;;;;16.17;8.40;;;13.00;99.90;;;;;;5016672;28;20064;-78
2021/09/26 04:48:49;;;;;;;18.30;9.13;;;13.00;99.90;;;;;;5016635;28;20053;-78
2021/09/26 04:51:15;;;;;;;14.10;8.50;;;13.10;99.90;;;;;;5034234;28;20083;-79
2021/09/26 04:53:41;;;;;;;14.05;8.65;;;13.10;99.90;;;;;;5016433;28;20022;-78
2021/09/26 04:56:07;;;;;;;11.07;7.68;;;13.10;99.90;;;;;;5034244;28;20021;-78
2021/09/26 04:58:33;;;;;;;11.57;7.60;;;13.10;99.90;;;;;;5013327;28;20029;-78
2021/09/26 05:00:58;;;;;;;13.45;8.70;;;13.10;99.90;;;;;;4996624;28;20045;-78
2021/09/26 05:03:24;;;;;;;16.73;7.18;;;13.20;99.90;;;;;;4996759;28;20508;-78
2021/09/26 05:05:49;;;;;;;17.55;6.90;;;13.20;99.90;;;;;;4996638;28;20474;-78
2021/09/26 05:08:15;;;;;;;17.08;7.53;;;13.20;99.90;;;;;;4996705;28;20172;-78
2021/09/26 05:10:41;;;;;;;12.10;6.20;;;13.20;99.90;;;;;;4996431;28;20030;-78
2021/09/26 05:13:06;;;;;;;11.02;7.10;;;13.20;99.90;;;;;;5014208;28;20034;-79
2021/09/26 05:15:32;;;;;;;15.95;8.45;;;13.20;99.90;;;;;;4996240;28;20018;-78
2021/09/26 05:17:58;;;;;;;17.08;6.53;;;13.30;99.90;;;;;;5013980;28;20553;-78
2021/09/26 05:20:23;;;;;;;10.70;5.90;;;13.30;99.90;;;;;;4996896;28;20112;-78
2021/09/26 05:22:49;;;;;;;13.90;6.78;;;13.30;99.90;;;;;;5013929;28;20021;-78
2021/09/26 05:25:16;;;;;;;13.73;6.05;;;13.30;99.90;;;;;;4996151;28;20064;-78
2021/09/26 05:27:42;;;;;;;9.85;6.60;;;13.40;99.90;;;;;;5013899;28;20053;-78
2021/09/26 05:30:09;;;;;;;12.63;5.90;;;13.30;99.90;;;;;;5045288;28;20112;-78
2021/09/26 05:32:36;;;;;;;15.27;6.35;;;13.40;99.90;;;;;;5033319;28;20397;-78
2021/09/26 05:35:02;;;;;;;8.40;5.40;;;13.40;99.90;;;;;;5033364;28;20021;-78
2021/09/26 05:37:27;;;;;;;9.23;6.10;;;13.40;99.90;;;;;;5033538;28;20021;-78
2021/09/26 05:39:53;;;;;;;8.95;5.75;;;13.50;99.90;;;;;;5033496;28;20021;-79
2021/09/26 05:42:18;;;;;;;11.98;6.82;;;13.40;99.90;;;;;;5015699;28;20036;-78
2021/09/26 05:44:44;;;;;;;9.70;6.18;;;13.50;99.90;;;;;;5033110;28;20032;-78
2021/09/26 05:47:10;;;;;;;13.25;7.97;;;13.50;99.90;;;;;;5033212;28;20036;-78
2021/09/26 05:49:37;;;;;;;20.92;7.13;;;13.50;99.90;;;;;;5015546;28;20029;-78
2021/09/26 05:52:07;;;;;;;9.52;6.40;;;13.40;99.90;;;;;;5033099;28;20394;-78
2021/09/26 05:54:34;;;;;;;15.23;7.95;;;13.50;99.90;;;;;;5033087;28;20570;-78
2021/09/26 05:57:00;;;;;;;12.85;7.40;;;13.70;99.90;;;;;;5015403;28;20389;-78
2021/09/26 05:59:26;;;;;;;11.32;6.22;;;13.60;99.90;;;;;;5015131;28;20022;-78
2021/09/26 06:01:51;;;;;;;13.40;7.53;;;13.60;99.90;;;;;;5030679;28;20045;-79
2021/09/26 06:04:17;;;;;;;9.32;5.65;;;13.70;99.90;;;;;;5044593;28;20044;-79
2021/09/26 06:06:42;;;;;;;11.95;6.90;;;13.70;99.90;;;;;;5032697;28;20067;-79
2021/09/26 06:09:08;;;;;;;9.27;6.07;;;13.70;99.90;;;;;;5032771;28;20026;-78
2021/09/26 06:11:33;;;;;;;14.40;6.47;;;13.80;99.90;;;;;;5032582;28;20120;-78
2021/09/26 06:13:59;;;;;;;16.83;7.05;;;13.80;99.90;;;;;;5032266;28;20053;-78
2021/09/26 06:16:25;;;;;;;8.60;5.85;;;13.80;99.90;;;;;;5014817;28;20021;-78
2021/09/26 06:18:50;;;;;;;17.55;7.47;;;13.90;99.90;;;;;;5032562;28;20092;-79
2021/09/26 06:21:16;;;;;;;15.82;6.68;;;13.90;99.90;;;;;;5032474;28;20441;-78
2021/09/26 06:23:41;;;;;;;13.13;6.50;;;13.90;99.90;;;;;;5014637;28;20025;-78
2021/09/26 06:26:07;;;;;;;10.98;5.63;;;13.90;99.90;;;;;;5031936;28;20026;-78
2021/09/26 06:28:32;;;;;;;12.35;6.50;;;14.00;99.90;;;;;;5032324;28;20055;-78
2021/09/26 06:30:58;;;;;;;10.65;6.22;;;14.10;99.90;;;;;;5032094;28;20044;-78
2021/09/26 06:33:26;;;;;;;8.73;5.53;;;14.10;99.90;;;;;;5014683;28;20029;-78
2021/09/26 06:35:52;;;;;;;9.68;6.43;;;14.20;99.90;;;;;;5014427;28;20021;-78
2021/09/26 06:38:18;;;;;;;16.92;6.63;;;14.20;99.90;;;;;;5032283;28;20061;-79
2021/09/26 06:40:43;;;;;;;7.55;5.95;;;14.30;99.90;;;;;;5014425;28;20052;-78
2021/09/26 06:43:09;;;;;;;9.23;5.85;;;14.30;99.90;;;;;;5014542;28;20037;-78
2021/09/26 06:45:34;;;;;;;9.45;5.68;;;14.40;99.90;;;;;;5031782;28;20026;-78
2021/09/26 06:48:00;;;;;;;7.78;5.15;;;14.40;99.90;;;;;;5014410;28;20025;-78
2021/09/26 06:50:27;;;;;;;14.45;7.05;;;14.50;99.90;;;;;;5014415;28;20021;-79
2021/09/26 06:52:53;;;;;;;8.13;4.88;;;14.50;99.90;;;;;;5031937;28;20013;-79
2021/09/26 06:55:18;;;;;;;10.80;6.22;;;14.50;99.90;;;;;;5014366;28;20080;-78
2021/09/26 06:57:44;;;;;;;17.33;6.97;;;14.50;99.90;;;;;;5031841;28;20040;-79
2021/09/26 07:00:11;;;;;;;9.30;5.95;;;14.50;99.90;;;;;;5031758;28;20497;-78
2021/09/26 07:02:36;;;;;;;9.80;5.97;;;14.60;99.90;;;;;;5014338;28;20451;-78
2021/09/26 07:05:02;;;;;;;14.00;6.18;;;14.60;99.90;;;;;;5014109;28;20053;-78
2021/09/26 07:07:28;;;;;;;11.75;5.38;;;14.60;99.90;;;;;;5014443;28;20433;-79
2021/09/26 07:09:54;;;;;;;6.05;4.97;;;14.70;99.90;;;;;;5014287;28;20033;-78
2021/09/26 07:12:20;;;;;;;10.35;5.93;;;14.70;99.90;;;;;;5013900;28;20072;-78
2021/09/26 07:14:46;;;;;;;11.48;5.70;;;14.70;99.90;;;;;;5013759;28;20060;-78
2021/09/26 07:17:12;;;;;;;8.65;4.85;;;14.70;99.90;;;;;;5010814;28;20073;-78
2021/09/26 07:19:38;;;;;;;18.13;5.97;;;14.70;99.90;;;;;;5025076;28;20068;-78
2021/09/26 07:22:04;;;;;;;9.95;5.40;;;14.70;99.90;;;;;;5010557;28;20040;-78
2021/09/26 07:24:30;;;;;;;15.13;5.65;;;14.90;99.90;;;;;;5010427;28;20034;-78
2021/09/26 07:26:56;;;;;;;8.63;4.80;;;14.80;99.90;;;;;;5027175;28;20109;-78
2021/09/26 07:29:21;;;;;;;10.15;5.45;;;14.80;99.90;;;;;;5033650;28;20044;-78
2021/09/26 07:31:47;;;;;;;9.25;5.80;;;14.80;99.90;;;;;;5027143;28;20108;-78
2021/09/26 07:34:13;;;;;;;7.32;5.50;;;14.90;99.90;;;;;;5009641;28;20018;-78
2021/09/26 07:36:38;;;;;;;7.47;5.95;;;14.90;99.90;;;;;;5009762;28;20116;-78
2021/09/26 07:39:04;;;;;;;10.75;5.28;;;15.00;99.90;;;;;;5027976;28;20413;-79
2021/09/26 07:41:30;;;;;;;6.53;4.55;;;15.00;99.90;;;;;;5031767;28;20032;-78
2021/09/26 07:43:56;;;;;;;13.80;6.05;;;15.00;99.90;;;;;;5029985;28;20030;-78
2021/09/26 07:46:22;;;;;;;10.27;6.15;;;15.10;99.90;;;;;;5019900;28;20056;-78
2021/09/26 07:48:48;;;;;;;9.73;5.50;;;15.10;99.90;;;;;;5029442;28;20533;-78
2021/09/26 07:51:14;;;;;;;10.38;5.57;;;15.00;99.90;;;;;;5029019;28;20413;-78
2021/09/26 07:53:39;;;;;;;7.22;5.03;;;15.20;99.90;;;;;;5018598;28;20017;-78
2021/09/26 07:56:05;;;;;;;14.25;7.00;;;15.30;99.90;;;;;;5029697;28;20021;-78
2021/09/26 07:58:31;;;;;;;17.38;5.40;;;15.40;99.90;;;;;;5016498;28;20503;-78
2021/09/26 08:00:57;;;;;;;16.58;6.07;;;15.40;99.90;;;;;;5030964;28;20040;-78
2021/09/26 08:03:23;;;;;;;14.55;6.22;;;15.50;99.90;;;;;;5023072;28;20036;-78
2021/09/26 08:05:48;;;;;;;6.70;4.53;;;15.50;99.90;;;;;;5036350;28;20405;-78
2021/09/26 08:08:14;;;;;;;11.65;5.53;;;15.50;99.90;;;;;;5025376;28;20494;-78
2021/09/26 08:10:40;;;;;;;12.15;6.43;;;15.60;99.90;;;;;;5030713;28;20497;-78
2021/09/26 08:13:05;;;;;;;7.80;4.75;;;15.60;99.90;;;;;;5030672;28;20022;-78
2021/09/26 08:15:31;;;;;;;12.68;5.75;;;15.60;99.90;;;;;;5013895;28;20022;-78
2021/09/26 08:17:57;;;;;;;13.15;5.90;;;15.70;99.90;;;;;;5013837;28;20393;-78
2021/09/26 08:20:23;;;;;;;7.95;3.85;;;15.70;99.90;;;;;;5023400;28;20033;-78
2021/09/26 08:22:52;;;;;;;12.05;5.32;;;15.70;99.90;;;;;;5030768;28;20371;-79
2021/09/26 08:25:17;;;;;;;6.70;4.72;;;15.80;99.90;;;;;;5030084;28;20026;-78
2021/09/26 08:27:43;;;;;;;13.27;4.75;;;15.80;99.90;;;;;;5027875;28;20035;-78
2021/09/26 08:30:10;;;;;;;10.48;4.25;;;15.80;99.90;;;;;;5014982;28;20503;-78
2021/09/26 08:32:37;;;;;;;8.38;4.93;;;15.80;99.90;;;;;;5024947;28;20670;-78
2021/09/26 08:35:04;;;;;;;8.15;5.72;;;16.00;99.90;;;;;;5030140;28;20048;-78
2021/09/26 08:37:30;;;;;;;13.38;5.32;;;15.90;99.90;;;;;;5019293;28;20596;-78
2021/09/26 08:39:56;;;;;;;10.48;4.18;;;15.90;99.90;;;;;;5030128;28;20054;-79
2021/09/26 08:42:22;;;;;;;9.27;4.57;;;16.00;99.90;;;;;;5012981;28;20056;-78
2021/09/26 08:44:49;;;;;;;8.02;4.40;;;16.10;99.90;;;;;;5029993;28;20108;-79
2021/09/26 08:47:16;;;;;;;10.48;5.03;;;16.00;99.90;;;;;;5028190;28;20040;-78
2021/09/26 08:49:43;;;;;;;7.57;5.07;;;16.20;99.90;;;;;;5019815;28;20087;-79
2021/09/26 08:52:09;;;;;;;7.68;4.25;;;16.20;99.90;;;;;;5021345;28;20025;-79
2021/09/26 08:54:34;;;;;;;10.70;5.75;;;16.30;99.90;;;;;;5019981;28;20035;-78
2021/09/26 08:57:00;;;;;;;11.23;5.18;;;16.40;99.90;;;;;;5016209;28;20393;-78
2021/09/26 08:59:26;;;;;;;16.98;4.88;;;16.50;99.90;;;;;;5013265;28;20438;-78
2021/09/26 09:01:51;;;;;;;10.50;6.63;;;16.50;99.90;;;;;;5005747;28;20068;-79
2021/09/26 09:04:17;;;;;;;14.50;5.90;;;16.50;99.90;;;;;;5029821;28;20025;-78
2021/09/26 09:06:44;;;;;;;6.32;4.55;;;16.50;99.90;;;;;;5030240;28;20401;-79
2021/09/26 09:09:15;;;;;;;13.70;5.63;;;16.50;99.90;;;;;;5012904;28;20031;-78
2021/09/26 09:11:43;;;;;;;6.20;4.45;;;16.70;99.90;;;;;;5012795;28;20026;-78
2021/09/26 09:14:09;;;;;;;13.95;4.38;;;16.80;99.90;;;;;;5029822;28;20021;-78
2021/09/26 09:16:34;;;;;;;12.07;5.40;;;16.90;99.90;;;;;;5027644;28;20116;-78
2021/09/26 09:19:01;;;;;;;8.70;5.22;;;17.00;99.90;;;;;;5023344;28;20048;-78
2021/09/26 09:21:32;;;;;;;14.77;4.95;;;17.10;99.90;;;;;;5030058;28;20022;-78
2021/09/26 09:24:23;;;;;;;12.48;5.78;;;17.10;99.90;;;;;;5019465;28;20591;-78
2021/09/26 09:26:49;;;;;;;10.40;5.22;;;17.20;99.90;;;;;;5006554;28;20045;-78
2021/09/26 09:29:14;;;;;;;10.48;4.65;;;17.20;99.90;;;;;;5029597;28;20033;-78
2021/09/26 09:32:17;;;;;;;14.60;5.55;;;17.40;99.90;;;;;;5018498;28;20486;-78
2021/09/26 09:34:44;;;;;;;13.05;5.68;;;17.50;99.90;;;;;;5026520;28;20032;-78
2021/09/26 09:37:12;;;;;;;10.25;4.88;;;17.50;99.90;;;;;;5028838;28;20374;-79
2021/09/26 09:39:39;;;;;;;10.05;5.10;;;17.60;99.90;;;;;;5029156;28;20044;-78
2021/09/26 09:42:22;;;;;;;12.15;5.20;;;17.80;99.90;;;;;;5012848;28;20490;-78
2021/09/26 09:44:48;;;;;;;7.45;5.03;;;17.80;99.90;;;;;;5024965;28;20025;-79
2021/09/26 09:47:14;;;;;;;8.38;5.00;;;17.90;99.90;;;;;;5025383;28;20076;-79
2021/09/26 09:49:54;;;;;;;8.30;5.35;;;18.00;99.90;;;;;;5031238;28;20100;-79
2021/09/26 09:52:40;;;;;;;10.20;5.68;;;17.90;99.90;;;;;;5029088;28;20018;-78
2021/09/26 09:55:06;;;;;;;6.97;4.43;;;18.00;99.90;;;;;;5013060;28;20040;-78
2021/09/26 09:57:31;;;;;;;12.98;5.03;;;17.90;99.90;;;;;;5024732;28;20034;-79
2021/09/26 09:59:57;;;;;;;16.70;6.45;;;17.90;99.90;;;;;;5028780;28;20025;-79
2021/09/26 10:02:33;;;;;;;7.78;4.57;;;18.00;99.90;;;;;;5027627;28;20061;-79
2021/09/26 10:05:00;;;;;;;8.07;5.43;;;18.00;99.90;;;;;;5028641;28;20154;-78
2021/09/26 10:07:28;;;;;;;12.57;6.20;;;18.20;99.90;;;;;;5010965;28;20461;-79
2021/09/26 10:09:55;;;;;;;9.43;6.13;;;18.30;99.90;;;;;;5026534;28;20755;-79
2021/09/26 10:12:26;;;;;;;9.55;6.93;;;18.30;99.90;;;;;;5018836;28;20096;-79
2021/09/26 10:14:55;;;;;;;12.65;6.50;;;18.40;99.90;;;;;;5028271;28;20033;-79
2021/09/26 10:17:21;;;;;;;14.23;6.20;;;18.50;99.90;;;;;;5028242;28;20132;-78
2021/09/26 10:19:47;;;;;;;13.30;5.93;;;18.50;99.90;;;;;;5028295;28;20037;-79
2021/09/26 10:22:15;;;;;;;12.38;6.78;;;18.80;99.90;;;;;;5025856;28;20099;-78
2021/09/26 10:24:45;;;;;;;15.00;6.45;;;18.80;99.90;;;;;;5028170;28;20037;-78
2021/09/26 10:27:30;;;;;;;11.23;6.85;;;19.10;99.90;;;;;;5016510;28;20025;-78
2021/09/26 10:30:09;;;;;;;14.38;5.72;;;19.10;99.90;;;;;;5010111;28;20065;-78
2021/09/26 10:32:37;;;;;;;11.27;6.70;;;19.30;99.90;;;;;;5013184;28;20033;-79
2021/09/26 10:35:06;;;;;;;12.73;5.78;;;19.40;99.90;;;;;;5013237;28;20021;-78
2021/09/26 10:37:34;;;;;;;14.60;5.65;;;19.40;99.90;;;;;;5013112;28;20017;-77
2021/09/26 10:40:01;;;;;;;11.13;5.72;;;19.70;99.90;;;;;;5012354;28;20072;-77
2021/09/26 10:42:35;;;;;;;13.90;6.18;;;19.80;99.90;;;;;;5013637;28;20037;-77
2021/09/26 10:45:07;;;;;;;10.30;5.47;;;20.00;99.90;;;;;;5030812;28;20402;-78
2021/09/26 10:47:35;;;;;;;8.63;5.30;;;20.10;99.90;;;;;;5013296;28;20057;-78
2021/09/26 10:50:01;;;;;;;19.30;6.72;;;20.30;99.90;;;;;;5031870;28;20120;-78
2021/09/26 10:52:44;;;;;;;9.00;5.60;;;20.40;99.90;;;;;;5033127;28;20112;-78
2021/09/26 10:55:16;;;;;;;9.67;5.23;;;20.60;99.90;;;;;;5025965;28;20021;-78
2021/09/26 10:58:10;;;;;;;11.85;5.65;;;20.90;99.90;;;;;;5011472;28;20026;-79
2021/09/26 11:00:54;;;;;;;13.18;5.55;;;21.20;99.90;;;;;;4993316;28;20050;-78
2021/09/26 11:03:41;;;;;;;11.40;5.93;;;21.40;99.90;;;;;;5008339;28;20025;-78
2021/09/26 11:06:23;;;;;;;13.18;5.20;;;21.40;99.90;;;;;;5031717;28;20164;-78
2021/09/26 11:09:03;;;;;;;11.68;5.20;;;21.50;99.90;;;;;;5028849;28;20017;-78
2021/09/26 11:11:38;;;;;;;10.77;5.18;;;21.60;99.90;;;;;;5018709;28;20026;-77
2021/09/26 11:14:07;;;;;;;8.65;4.75;;;21.70;99.90;;;;;;5012657;28;20022;-78
2021/09/26 11:16:48;;;;;;;12.65;5.47;;;21.90;99.90;;;;;;5011424;28;20163;-78
2021/09/26 11:19:15;;;;;;;14.30;4.30;;;22.10;99.90;;;;;;5015137;28;20022;-78
2021/09/26 11:21:42;;;;;;;8.98;4.47;;;22.40;99.90;;;;;;4993979;28;20485;-78
2021/09/26 11:24:22;;;;;;;9.63;4.88;;;22.60;99.90;;;;;;4994163;28;20029;-78
2021/09/26 11:26:59;;;;;;;10.73;5.20;;;22.90;99.90;;;;;;5013253;28;20113;-78
2021/09/26 11:29:30;;;;;;;6.82;3.90;;;23.30;99.90;;;;;;5031513;28;20040;-79
2021/09/26 11:31:57;;;;;;;8.68;4.47;;;23.40;99.90;;;;;;5013204;28;20025;-78
2021/09/26 11:34:36;;;;;;;18.08;4.75;;;23.60;99.90;;;;;;5031462;28;20096;-79
2021/09/26 11:37:02;;;;;;;11.07;4.15;;;23.80;99.90;;;;;;5025832;28;20398;-78
2021/09/26 11:39:29;;;;;;;10.73;5.10;;;24.10;99.90;;;;;;5012625;28;20018;-78
2021/09/26 11:41:55;;;;;;;8.13;4.40;;;24.10;99.90;;;;;;4994250;28;20120;-79
2021/09/26 11:44:21;;;;;;;11.77;4.63;;;24.50;99.90;;;;;;4998540;28;20034;-78
2021/09/26 11:46:52;;;;;;;8.48;4.22;;;25.30;99.90;;;;;;5024277;28;20504;-78
2021/09/26 11:49:19;;;;;;;7.90;3.60;;;25.80;99.90;;;;;;5012246;28;20048;-78
2021/09/26 11:51:45;;;;;;;5.55;3.75;;;26.30;99.90;;;;;;4997471;28;20375;-78
2021/09/26 11:54:11;;;;;;;9.10;3.40;;;26.60;99.90;;;;;;4994708;28;20081;-79
2021/09/26 11:56:39;;;;;;;7.25;3.45;;;27.00;99.90;;;;;;5020309;28;20556;-79
2021/09/26 11:59:13;;;;;;;6.60;3.08;;;26.90;99.90;;;;;;5019234;28;20583;-79
2021/09/26 12:01:43;;;;;;;4.85;3.40;;;27.50;99.90;;;;;;5019292;28;20037;-78
2021/09/26 12:04:23;;;;;;;7.45;3.22;;;27.70;99.90;;;;;;5004878;28;20513;-78
2021/09/26 12:07:00;;;;;;;9.07;3.15;;;28.00;99.90;;;;;;5011664;28;20034;-78
2021/09/26 12:09:43;;;;;;;10.80;3.25;;;28.20;99.90;;;;;;5024041;28;20026;-78
2021/09/26 12:12:16;;;;;;;7.55;2.67;;;28.70;99.90;;;;;;5025420;28;20029;-77
2021/09/26 12:14:49;;;;;;;7.03;3.08;;;28.80;99.90;;;;;;5015245;28;20030;-78
2021/09/26 12:17:26;;;;;;;6.25;3.35;;;29.30;99.90;;;;;;5010721;28;20056;-78
2021/09/26 12:20:11;;;;;;;6.82;3.25;;;29.50;99.90;;;;;;4993916;28;20486;-78
2021/09/26 12:22:37;;;;;;;6.05;3.10;;;29.60;99.90;;;;;;5014511;28;20037;-78
2021/09/26 12:25:22;;;;;;;4.82;3.25;;;29.60;99.90;;;;;;5012774;28;20607;-81
2021/09/26 12:27:47;;;;;;;4.95;2.22;;;29.90;99.90;;;;;;4995840;28;20121;-80
2021/09/26 12:30:20;;;;;;;7.50;3.22;;;30.00;99.90;;;;;;5023101;28;20113;-80
2021/09/26 12:32:51;;;;;;;3.83;2.55;;;30.30;99.90;;;;;;5003319;28;20029;-80
2021/09/26 12:35:29;;;;;;;3.25;2.60;;;30.30;99.90;;;;;;5014465;28;20034;-79
2021/09/26 12:37:57;;;;;;;8.00;2.90;;;30.60;99.90;;;;;;5023165;28;20070;-80
2021/09/26 12:40:31;;;;;;;9.32;3.30;;;30.50;99.90;;;;;;5030677;28;20099;-82
2021/09/26 12:42:58;;;;;;;3.88;2.78;;;30.60;99.90;;;;;;5013633;28;20058;-81
2021/09/26 12:45:39;;;;;;;6.93;3.28;;;30.70;99.90;;;;;;5019310;28;20064;-81
2021/09/26 12:48:06;;;;;;;4.45;2.53;;;30.90;99.90;;;;;;5021505;28;20037;-81